Time;durP1;ratioP1;P1;durP2;ratioP2;P2;SDS_P1;SDS_P2;PMS_P1;PMS_P2;Temp;Humidity;BMP_temperature;BMP_pressure;BME280_temperature;BME280_humidity;BME280_pressure;Samples;Min_cycle;Max_cycle;Signal;HPM_P1;HPM_P2
2021/09/10 00:00:06;;;;;;;8.67;7.77;;;21.90;76.20;;;;;;4948363;29;20463;-42
2021/09/10 00:02:32;;;;;;;9.87;8.00;;;21.90;76.20;;;;;;4950860;28;20455;-42
2021/09/10 00:04:59;;;;;;;9.93;7.80;;;21.90;76.20;;;;;;4948251;28;20503;-41
2021/09/10 00:07:26;;;;;;;8.33;7.53;;;21.90;76.30;;;;;;4946963;28;20995;-41
2021/09/10 00:09:53;;;;;;;9.23;7.80;;;21.80;76.30;;;;;;4944602;28;20477;-41
2021/09/10 00:12:20;;;;;;;8.80;7.83;;;21.80;76.30;;;;;;4949003;28;20950;-41
2021/09/10 00:14:46;;;;;;;9.20;7.80;;;21.80;76.40;;;;;;4948693;28;20474;-42
2021/09/10 00:17:13;;;;;;;8.07;7.37;;;21.80;76.50;;;;;;4949915;29;20465;-42
2021/09/10 00:19:40;;;;;;;9.33;8.37;;;21.80;76.50;;;;;;4948008;28;20471;-42
2021/09/10 00:22:06;;;;;;;9.43;8.37;;;21.80;76.60;;;;;;4951691;28;20465;-41
2021/09/10 00:24:33;;;;;;;9.10;8.20;;;21.70;76.60;;;;;;4949872;28;20850;-42
2021/09/10 00:27:00;;;;;;;9.83;8.87;;;21.70;76.70;;;;;;4947978;28;20465;-42
2021/09/10 00:29:27;;;;;;;9.53;8.33;;;21.70;76.70;;;;;;4947517;28;20466;-42
2021/09/10 00:31:53;;;;;;;10.00;8.80;;;21.70;76.70;;;;;;4944892;28;20832;-41
2021/09/10 00:34:20;;;;;;;10.40;8.60;;;21.70;76.60;;;;;;4951392;28;20860;-41
2021/09/10 00:36:47;;;;;;;9.27;8.37;;;21.70;76.50;;;;;;4947949;28;20833;-42
2021/09/10 00:39:17;;;;;;;9.50;8.50;;;21.70;76.50;;;;;;4945733;28;20987;-42
2021/09/10 00:41:44;;;;;;;9.90;8.67;;;21.70;76.60;;;;;;4942114;28;20467;-42
2021/09/10 00:44:10;;;;;;;8.60;7.77;;;21.60;76.60;;;;;;4945532;28;20490;-42
2021/09/10 00:46:37;;;;;;;10.00;8.97;;;21.60;76.70;;;;;;4947367;28;20454;-42
2021/09/10 00:49:05;;;;;;;9.30;8.40;;;21.60;76.70;;;;;;4946671;28;20948;-42
2021/09/10 00:51:31;;;;;;;8.83;7.93;;;21.60;76.70;;;;;;4948246;28;20831;-42
2021/09/10 00:53:58;;;;;;;11.20;7.80;;;21.60;76.80;;;;;;4945620;28;20478;-42
2021/09/10 00:56:26;;;;;;;8.80;7.90;;;21.60;76.80;;;;;;4946461;28;20999;-42
2021/09/10 00:58:56;;;;;;;8.57;7.50;;;21.60;76.70;;;;;;4947727;28;20459;-41
2021/09/10 01:01:26;;;;;;;9.80;8.70;;;21.60;76.70;;;;;;4944450;28;20467;-41
2021/09/10 01:03:53;;;;;;;9.00;8.10;;;21.60;76.80;;;;;;4945089;28;20471;-42
2021/09/10 01:06:22;;;;;;;13.03;8.93;;;21.60;76.70;;;;;;4946541;28;20463;-42
2021/09/10 01:08:50;;;;;;;9.70;8.80;;;21.60;76.70;;;;;;4940248;28;20463;-42
2021/09/10 01:11:18;;;;;;;9.10;8.10;;;21.50;76.70;;;;;;4947951;28;20489;-42
2021/09/10 01:13:45;;;;;;;9.97;8.97;;;21.50;76.80;;;;;;4939596;28;20991;-42
2021/09/10 01:16:13;;;;;;;10.00;9.07;;;21.50;76.80;;;;;;4946802;28;20467;-42
2021/09/10 01:18:40;;;;;;;9.50;8.43;;;21.50;77.00;;;;;;4947399;28;20614;-42
2021/09/10 01:21:06;;;;;;;8.33;7.53;;;21.50;77.00;;;;;;4948540;28;20454;-42
2021/09/10 01:23:35;;;;;;;10.20;8.67;;;21.50;77.10;;;;;;4946596;28;20459;-42
2021/09/10 01:26:02;;;;;;;9.40;8.60;;;21.50;77.10;;;;;;4946764;28;20526;-42
2021/09/10 01:28:29;;;;;;;13.27;8.70;;;21.50;77.10;;;;;;4946068;28;20933;-42
2021/09/10 01:30:56;;;;;;;12.20;7.50;;;21.50;77.20;;;;;;4945904;28;20480;-42
2021/09/10 01:33:23;;;;;;;9.90;8.90;;;21.40;77.20;;;;;;4946364;28;20458;-41
2021/09/10 01:35:50;;;;;;;9.43;7.90;;;21.40;77.30;;;;;;4945134;28;21006;-41
2021/09/10 01:38:17;;;;;;;8.80;8.00;;;21.40;77.30;;;;;;4947811;28;20475;-42
2021/09/10 01:40:43;;;;;;;9.87;8.63;;;21.40;77.40;;;;;;4944653;28;21074;-41
2021/09/10 01:43:10;;;;;;;11.00;9.00;;;21.40;77.40;;;;;;4947782;28;20841;-42
2021/09/10 01:45:37;;;;;;;9.10;7.93;;;21.40;77.50;;;;;;4945789;29;20487;-42
2021/09/10 01:48:04;;;;;;;9.50;8.70;;;21.40;77.60;;;;;;4944356;28;20463;-42
2021/09/10 01:50:31;;;;;;;9.57;8.60;;;21.40;77.70;;;;;;4946582;28;20482;-42
2021/09/10 01:52:58;;;;;;;9.03;8.10;;;21.40;77.70;;;;;;4946844;28;20454;-42
2021/09/10 01:55:25;;;;;;;11.40;8.97;;;21.40;77.80;;;;;;4947966;28;20473;-41
2021/09/10 01:57:52;;;;;;;9.97;9.00;;;21.40;77.90;;;;;;4948133;28;21020;-42
2021/09/10 02:00:19;;;;;;;9.27;8.37;;;21.40;78.00;;;;;;4942430;28;20969;-42
2021/09/10 02:02:47;;;;;;;9.07;8.17;;;21.30;78.10;;;;;;4953984;28;20534;-42
2021/09/10 02:05:16;;;;;;;10.30;8.90;;;21.40;78.20;;;;;;4954349;28;21055;-41
2021/09/10 02:07:43;;;;;;;10.20;8.93;;;21.40;78.20;;;;;;4949873;28;20462;-42
2021/09/10 02:10:12;;;;;;;9.27;8.37;;;21.40;78.20;;;;;;4947520;28;20475;-42
2021/09/10 02:12:39;;;;;;;10.60;8.50;;;21.40;78.20;;;;;;4949477;28;20453;-42
2021/09/10 02:15:09;;;;;;;9.87;8.00;;;21.40;78.10;;;;;;4950317;28;20544;-42
2021/09/10 02:17:36;;;;;;;9.20;8.30;;;21.40;78.10;;;;;;4953336;28;20463;-42
2021/09/10 02:20:04;;;;;;;9.43;8.53;;;21.40;78.00;;;;;;4949970;28;20961;-41
2021/09/10 02:22:31;;;;;;;9.03;8.13;;;21.40;77.80;;;;;;4953265;28;20979;-41
2021/09/10 02:24:59;;;;;;;10.33;9.23;;;21.40;77.70;;;;;;4951559;28;20490;-42
2021/09/10 02:27:25;;;;;;;10.10;8.70;;;21.40;77.50;;;;;;4950794;28;20976;-42
2021/09/10 02:29:52;;;;;;;10.23;9.00;;;21.40;77.40;;;;;;4935304;29;20477;-42
2021/09/10 02:32:19;;;;;;;9.40;8.60;;;21.40;77.30;;;;;;4953382;28;20455;-41
2021/09/10 02:34:45;;;;;;;9.40;8.40;;;21.40;77.20;;;;;;4953235;28;20460;-42
2021/09/10 02:37:12;;;;;;;10.23;9.23;;;21.40;77.20;;;;;;4949789;28;20828;-41
2021/09/10 02:39:39;;;;;;;10.17;8.63;;;21.40;77.30;;;;;;4948440;28;20494;-42
2021/09/10 02:42:06;;;;;;;9.30;7.90;;;21.40;77.40;;;;;;4950556;28;20501;-45
2021/09/10 02:44:33;;;;;;;9.27;8.27;;;21.30;77.40;;;;;;4951511;28;20466;-45
2021/09/10 02:46:59;;;;;;;10.63;9.07;;;21.40;77.40;;;;;;4951989;28;20455;-45
2021/09/10 02:49:26;;;;;;;9.00;8.17;;;21.30;77.40;;;;;;4950003;28;20470;-46
2021/09/10 02:51:53;;;;;;;10.80;9.70;;;21.30;77.40;;;;;;4950815;29;20478;-46
2021/09/10 02:54:19;;;;;;;9.50;8.57;;;21.30;77.40;;;;;;4949980;28;20959;-43
2021/09/10 02:56:46;;;;;;;9.03;8.23;;;21.30;77.40;;;;;;4949824;28;20469;-43
2021/09/10 02:59:13;;;;;;;10.07;9.07;;;21.30;77.30;;;;;;4949632;29;20470;-43
2021/09/10 03:01:44;;;;;;;13.00;9.87;;;21.30;77.40;;;;;;4952131;28;20460;-43
2021/09/10 03:04:11;;;;;;;10.20;9.20;;;21.30;77.50;;;;;;4949122;29;20502;-43
2021/09/10 03:06:39;;;;;;;10.00;9.03;;;21.30;77.50;;;;;;4944554;28;20494;-43
2021/09/10 03:09:06;;;;;;;9.23;8.33;;;21.30;77.60;;;;;;4949902;28;20483;-43
2021/09/10 03:11:33;;;;;;;10.00;8.43;;;21.30;77.60;;;;;;4950453;28;20458;-43
2021/09/10 03:13:59;;;;;;;10.30;9.30;;;21.30;77.60;;;;;;4951451;28;20490;-43
2021/09/10 03:16:27;;;;;;;9.77;8.37;;;21.20;77.60;;;;;;4951214;28;20482;-43
2021/09/10 03:18:54;;;;;;;9.00;8.20;;;21.20;77.60;;;;;;4947150;28;20977;-43
2021/09/10 03:21:21;;;;;;;11.17;10.07;;;21.20;77.70;;;;;;4949181;28;20463;-43
2021/09/10 03:23:47;;;;;;;9.93;8.93;;;21.20;77.80;;;;;;4947060;28;20830;-43
2021/09/10 03:26:14;;;;;;;10.90;8.60;;;21.20;77.80;;;;;;4946377;28;20506;-43
2021/09/10 03:28:41;;;;;;;10.67;9.63;;;21.20;77.80;;;;;;4950487;28;20459;-43
2021/09/10 03:31:08;;;;;;;10.30;9.27;;;21.20;77.90;;;;;;4948585;28;20459;-43
2021/09/10 03:33:35;;;;;;;9.73;8.70;;;21.20;78.00;;;;;;4947173;28;21028;-43
2021/09/10 03:36:01;;;;;;;9.97;8.97;;;21.20;78.00;;;;;;4951048;28;20464;-43
2021/09/10 03:38:28;;;;;;;12.70;8.80;;;21.10;78.10;;;;;;4949064;28;20806;-43
2021/09/10 03:40:55;;;;;;;10.27;8.37;;;21.20;78.10;;;;;;4948518;28;20467;-43
2021/09/10 03:43:22;;;;;;;9.80;8.90;;;21.20;78.20;;;;;;4948399;28;20455;-43
2021/09/10 03:45:48;;;;;;;9.03;8.10;;;21.10;78.20;;;;;;4947389;28;20491;-43
2021/09/10 03:48:15;;;;;;;13.23;9.57;;;21.10;78.30;;;;;;4951777;28;20455;-43
2021/09/10 03:50:42;;;;;;;11.23;10.00;;;21.10;78.30;;;;;;4946299;28;20470;-43
2021/09/10 03:53:09;;;;;;;10.30;9.23;;;21.10;78.30;;;;;;4944790;28;20455;-43
2021/09/10 03:55:35;;;;;;;10.63;9.53;;;21.10;78.30;;;;;;4946352;28;20485;-43
2021/09/10 03:58:03;;;;;;;12.17;9.70;;;21.10;78.20;;;;;;4948252;28;20469;-43
2021/09/10 04:00:32;;;;;;;9.60;8.70;;;21.10;77.90;;;;;;4946754;28;20462;-43
2021/09/10 04:03:03;;;;;;;10.40;8.83;;;21.10;77.90;;;;;;4949341;28;20471;-43
2021/09/10 04:05:33;;;;;;;9.80;8.77;;;21.10;78.00;;;;;;4947239;28;20501;-43
2021/09/10 04:07:59;;;;;;;10.93;9.80;;;21.10;78.10;;;;;;4949161;28;20467;-43
2021/09/10 04:10:26;;;;;;;9.37;8.40;;;21.00;78.10;;;;;;4947981;28;20965;-43
2021/09/10 04:12:53;;;;;;;9.73;8.77;;;21.10;78.10;;;;;;4947908;28;20825;-43
2021/09/10 04:15:20;;;;;;;9.13;8.33;;;21.00;78.20;;;;;;4946334;28;21014;-43
2021/09/10 04:17:48;;;;;;;11.03;8.80;;;21.00;78.20;;;;;;4946286;29;20951;-47
2021/09/10 04:20:14;;;;;;;8.90;8.00;;;21.00;78.30;;;;;;4947183;28;20466;-43
2021/09/10 04:22:41;;;;;;;9.83;8.80;;;21.00;78.40;;;;;;4948165;29;20467;-43
2021/09/10 04:25:09;;;;;;;9.77;8.77;;;21.00;78.40;;;;;;4948413;28;20492;-43
2021/09/10 04:27:36;;;;;;;14.40;9.23;;;21.00;78.40;;;;;;4948114;28;20464;-43
2021/09/10 04:30:04;;;;;;;14.10;9.97;;;21.00;78.30;;;;;;4947758;28;20470;-43
2021/09/10 04:32:31;;;;;;;10.50;9.47;;;21.00;78.30;;;;;;4947410;28;20463;-43
2021/09/10 04:35:00;;;;;;;10.17;9.27;;;21.00;78.30;;;;;;4946292;28;20467;-43
2021/09/10 04:37:27;;;;;;;11.60;9.00;;;21.00;78.30;;;;;;4947126;28;20996;-43
2021/09/10 04:39:55;;;;;;;11.23;10.07;;;21.00;78.30;;;;;;4960115;28;20561;-43
2021/09/10 04:42:22;;;;;;;10.67;9.33;;;21.00;78.30;;;;;;4943827;28;20455;-43
2021/09/10 04:44:49;;;;;;;10.13;9.13;;;21.00;78.10;;;;;;4945209;28;21180;-43
2021/09/10 04:47:15;;;;;;;11.10;10.00;;;21.00;78.00;;;;;;4947777;28;20458;-43
2021/09/10 04:49:42;;;;;;;10.63;9.67;;;21.00;78.10;;;;;;4944914;28;20468;-43
2021/09/10 04:52:09;;;;;;;9.83;8.80;;;21.00;78.20;;;;;;4958621;28;20832;-43
2021/09/10 04:54:36;;;;;;;10.50;9.13;;;21.00;78.10;;;;;;4947275;28;20491;-43
2021/09/10 04:57:03;;;;;;;17.43;9.90;;;21.00;78.10;;;;;;4946868;28;20544;-43
2021/09/10 04:59:30;;;;;;;10.80;9.53;;;21.00;78.10;;;;;;4944854;28;20462;-43
2021/09/10 05:01:57;;;;;;;12.03;9.20;;;21.00;78.10;;;;;;4948657;28;20817;-43
2021/09/10 05:04:28;;;;;;;13.33;8.17;;;21.00;78.10;;;;;;4945096;28;20554;-43
2021/09/10 05:06:58;;;;;;;9.93;8.87;;;20.90;78.10;;;;;;4947480;28;20493;-43
2021/09/10 05:09:24;;;;;;;10.70;9.50;;;20.90;78.10;;;;;;4946459;28;20834;-42
2021/09/10 05:11:51;;;;;;;11.20;10.20;;;20.90;78.10;;;;;;4948274;28;20452;-42
2021/09/10 05:14:18;;;;;;;13.20;9.27;;;21.00;78.00;;;;;;4946117;28;20487;-43
2021/09/10 05:16:45;;;;;;;9.97;9.00;;;20.90;78.00;;;;;;4947846;28;20467;-43
2021/09/10 05:19:12;;;;;;;10.10;8.50;;;21.00;77.90;;;;;;4948647;28;20470;-42
2021/09/10 05:21:39;;;;;;;10.30;9.27;;;21.00;77.80;;;;;;4947220;28;20471;-43
2021/09/10 05:24:06;;;;;;;16.80;9.63;;;21.00;77.80;;;;;;4944354;28;20463;-43
2021/09/10 05:26:33;;;;;;;12.60;8.70;;;21.00;77.80;;;;;;4944710;28;20487;-43
2021/09/10 05:29:02;;;;;;;11.93;10.73;;;21.00;77.80;;;;;;4944751;28;20546;-43
2021/09/10 05:31:29;;;;;;;11.27;10.17;;;21.00;77.50;;;;;;4950117;28;20462;-43
2021/09/10 05:33:56;;;;;;;10.60;9.60;;;21.00;77.60;;;;;;4946397;28;20469;-43
2021/09/10 05:36:23;;;;;;;11.63;10.43;;;21.00;77.60;;;;;;4945636;28;20554;-43
2021/09/10 05:38:49;;;;;;;10.03;9.10;;;21.00;77.60;;;;;;4948853;28;20467;-43
2021/09/10 05:41:16;;;;;;;10.40;9.50;;;21.00;77.50;;;;;;4946720;28;20465;-43
2021/09/10 05:43:43;;;;;;;12.40;9.57;;;21.00;77.50;;;;;;4945643;28;20461;-43
2021/09/10 05:46:10;;;;;;;11.30;10.20;;;21.00;77.50;;;;;;4947669;28;20497;-43
2021/09/10 05:48:37;;;;;;;9.77;8.87;;;21.00;77.40;;;;;;4945257;28;20462;-43
2021/09/10 05:51:04;;;;;;;10.80;9.80;;;21.00;77.50;;;;;;4945494;28;20470;-43
2021/09/10 05:53:31;;;;;;;11.07;9.97;;;21.00;77.40;;;;;;4950369;28;20470;-43
2021/09/10 05:55:59;;;;;;;13.80;9.80;;;21.00;77.40;;;;;;4947221;29;20450;-43
2021/09/10 05:58:28;;;;;;;15.73;9.80;;;21.00;77.50;;;;;;4949179;29;20459;-43
2021/09/10 06:00:57;;;;;;;9.67;8.67;;;21.00;77.60;;;;;;4944766;28;20821;-43
2021/09/10 06:03:24;;;;;;;11.37;10.20;;;21.10;77.60;;;;;;4943265;28;20821;-42
2021/09/10 06:05:51;;;;;;;10.70;9.40;;;21.00;77.50;;;;;;4947172;28;20490;-43
2021/09/10 06:08:18;;;;;;;9.80;8.80;;;21.10;77.50;;;;;;4945313;28;20871;-43
2021/09/10 06:10:46;;;;;;;10.47;9.37;;;21.20;77.20;;;;;;4942989;28;20677;-43
2021/09/10 06:13:16;;;;;;;11.73;9.57;;;21.20;76.70;;;;;;4946201;28;20477;-43
2021/09/10 06:15:43;;;;;;;10.47;9.40;;;21.30;76.30;;;;;;4948321;29;20466;-43
2021/09/10 06:18:10;;;;;;;10.80;8.67;;;21.30;76.10;;;;;;4948067;28;20546;-43
2021/09/10 06:20:39;;;;;;;9.03;8.10;;;21.30;76.10;;;;;;4959040;28;20447;-43
2021/09/10 06:23:06;;;;;;;10.07;9.07;;;21.30;76.30;;;;;;4944158;28;20463;-43
2021/09/10 06:25:32;;;;;;;9.80;8.80;;;21.40;76.30;;;;;;4946751;28;20459;-42
2021/09/10 06:27:59;;;;;;;9.43;8.53;;;21.40;76.10;;;;;;4947034;28;20464;-43
2021/09/10 06:30:26;;;;;;;9.27;8.37;;;21.40;76.00;;;;;;4942878;28;20470;-43
2021/09/10 06:32:53;;;;;;;10.60;9.00;;;21.50;75.50;;;;;;4947317;28;20861;-43
2021/09/10 06:35:20;;;;;;;11.27;8.77;;;21.50;74.80;;;;;;4945380;28;20970;-43
2021/09/10 06:37:46;;;;;;;12.47;8.73;;;21.60;74.50;;;;;;4946420;28;20469;-43
2021/09/10 06:40:17;;;;;;;9.53;8.53;;;21.50;74.50;;;;;;4948339;28;20964;-42
2021/09/10 06:42:46;;;;;;;10.07;9.07;;;21.50;74.60;;;;;;4946902;28;20904;-43
2021/09/10 06:45:12;;;;;;;9.60;8.67;;;21.60;74.50;;;;;;4946491;28;20470;-43
2021/09/10 06:47:42;;;;;;;8.93;8.10;;;21.50;74.80;;;;;;4950319;28;20528;-43
2021/09/10 06:50:09;;;;;;;9.30;8.40;;;21.50;74.60;;;;;;4953623;28;20975;-43
2021/09/10 06:52:41;;;;;;;9.40;8.50;;;21.50;74.80;;;;;;4950294;28;20467;-43
2021/09/10 06:55:09;;;;;;;9.07;8.17;;;21.50;74.90;;;;;;4948829;28;20459;-43
2021/09/10 06:57:36;;;;;;;9.30;8.20;;;21.60;74.60;;;;;;4946910;28;20463;-43
2021/09/10 07:00:04;;;;;;;9.67;8.17;;;21.60;74.30;;;;;;4952948;28;20463;-43
2021/09/10 07:02:33;;;;;;;8.73;7.83;;;21.60;74.50;;;;;;4947365;28;20932;-43
2021/09/10 07:05:01;;;;;;;8.40;7.60;;;21.70;74.20;;;;;;4952115;28;21105;-43
2021/09/10 07:07:27;;;;;;;8.77;7.30;;;21.70;74.20;;;;;;4948365;28;20490;-43
2021/09/10 07:09:54;;;;;;;9.43;8.20;;;21.70;74.20;;;;;;4952388;28;20463;-43
2021/09/10 07:12:21;;;;;;;9.20;7.43;;;21.70;74.20;;;;;;4947457;28;20460;-43
2021/09/10 07:14:48;;;;;;;8.40;7.60;;;21.80;73.80;;;;;;4948222;28;20762;-43
2021/09/10 07:17:15;;;;;;;11.93;8.30;;;21.90;73.60;;;;;;4947631;28;20947;-43
2021/09/10 07:19:42;;;;;;;9.30;8.30;;;21.90;73.70;;;;;;4949795;28;20478;-43
2021/09/10 07:22:14;;;;;;;8.73;7.83;;;21.90;73.70;;;;;;4945789;28;20470;-43
2021/09/10 07:24:41;;;;;;;8.50;7.50;;;22.00;73.50;;;;;;4947748;28;20481;-43
2021/09/10 07:27:08;;;;;;;9.33;7.27;;;22.10;73.40;;;;;;4947700;28;20494;-43
2021/09/10 07:29:35;;;;;;;7.80;7.10;;;22.10;73.20;;;;;;4950034;28;20451;-43
2021/09/10 07:32:02;;;;;;;8.23;7.17;;;22.20;72.70;;;;;;4948380;28;20498;-43
2021/09/10 07:34:29;;;;;;;9.27;8.27;;;22.30;72.40;;;;;;4950289;28;20469;-43
2021/09/10 07:36:58;;;;;;;8.70;7.80;;;22.30;72.40;;;;;;4951201;28;20964;-43
2021/09/10 07:39:26;;;;;;;8.07;7.20;;;22.30;72.40;;;;;;4948548;28;21052;-43
2021/09/10 07:41:53;;;;;;;8.27;7.43;;;22.40;72.20;;;;;;4949041;28;20467;-43
2021/09/10 07:44:20;;;;;;;20.30;10.63;;;22.40;72.10;;;;;;4949674;28;20879;-42
2021/09/10 07:46:51;;;;;;;8.67;7.50;;;22.30;72.10;;;;;;4952897;28;20516;-42
2021/09/10 07:49:24;;;;;;;9.40;7.53;;;22.40;72.10;;;;;;4951874;28;20472;-42
2021/09/10 07:51:53;;;;;;;8.07;7.27;;;22.40;72.20;;;;;;4949244;29;20451;-42
2021/09/10 07:54:20;;;;;;;8.23;7.07;;;22.50;72.30;;;;;;4950566;29;20481;-42
2021/09/10 07:56:47;;;;;;;8.40;7.60;;;22.50;71.80;;;;;;4953188;28;20489;-42
2021/09/10 07:59:13;;;;;;;10.43;8.50;;;22.50;71.90;;;;;;4952626;28;20482;-43
2021/09/10 08:01:41;;;;;;;9.33;7.43;;;22.50;72.20;;;;;;4950964;29;20482;-43
2021/09/10 08:04:08;;;;;;;8.47;7.67;;;22.60;71.50;;;;;;4953630;28;20541;-43
2021/09/10 08:06:36;;;;;;;7.30;6.70;;;22.60;71.40;;;;;;4950991;28;20851;-42
2021/09/10 08:09:04;;;;;;;11.80;8.00;;;22.70;71.60;;;;;;4950116;28;20844;-42
2021/09/10 08:11:33;;;;;;;7.13;6.43;;;22.80;71.60;;;;;;4949334;28;20546;-42
2021/09/10 08:14:02;;;;;;;7.67;6.87;;;23.00;71.20;;;;;;4944485;28;20561;-42
2021/09/10 08:16:29;;;;;;;10.13;7.93;;;23.20;70.40;;;;;;4950312;28;20474;-42
2021/09/10 08:18:56;;;;;;;8.10;7.03;;;23.40;69.00;;;;;;4954020;28;21305;-42
2021/09/10 08:21:40;;;;;;;7.87;7.07;;;23.50;69.20;;;;;;4950732;28;20470;-43
2021/09/10 08:24:09;;;;;;;7.97;7.20;;;23.60;69.30;;;;;;4948449;28;20515;-44
2021/09/10 08:26:37;;;;;;;8.43;7.50;;;23.60;69.40;;;;;;4947227;28;20528;-42
2021/09/10 08:29:04;;;;;;;7.50;6.80;;;23.60;69.50;;;;;;4949090;28;20454;-42
2021/09/10 08:31:30;;;;;;;10.43;8.20;;;23.60;69.80;;;;;;4949071;28;20797;-42
2021/09/10 08:33:58;;;;;;;9.00;8.10;;;23.60;69.90;;;;;;4950711;28;20454;-42
2021/09/10 08:36:24;;;;;;;8.17;7.40;;;23.60;69.80;;;;;;4954040;28;20461;-43
2021/09/10 08:38:51;;;;;;;8.77;7.80;;;23.50;70.00;;;;;;4946379;28;20463;-42
2021/09/10 08:41:26;;;;;;;8.30;7.50;;;23.60;69.90;;;;;;4952001;28;20472;-42
2021/09/10 08:43:56;;;;;;;7.73;6.63;;;23.60;69.60;;;;;;4953140;28;20476;-43
2021/09/10 08:46:24;;;;;;;7.43;6.73;;;23.60;69.30;;;;;;4946297;28;20478;-42
2021/09/10 08:48:51;;;;;;;8.47;6.13;;;23.60;69.20;;;;;;4949724;28;20457;-42
2021/09/10 08:51:18;;;;;;;7.77;6.60;;;23.60;69.10;;;;;;4949479;28;21295;-42
2021/09/10 08:53:45;;;;;;;6.67;5.97;;;23.60;68.70;;;;;;4952704;28;20451;-42
2021/09/10 08:56:12;;;;;;;7.40;6.70;;;23.70;68.40;;;;;;4949353;28;20820;-43
2021/09/10 08:58:39;;;;;;;6.53;6.00;;;23.70;68.20;;;;;;4952116;28;20832;-42
2021/09/10 09:01:09;;;;;;;7.00;6.30;;;23.70;68.20;;;;;;4948662;28;20451;-42
2021/09/10 09:03:37;;;;;;;9.00;6.33;;;23.70;68.10;;;;;;4945795;28;20979;-43
2021/09/10 09:06:04;;;;;;;6.20;5.40;;;23.80;67.80;;;;;;4950488;29;21361;-43
2021/09/10 09:08:31;;;;;;;6.60;5.97;;;23.90;68.10;;;;;;4947013;28;20462;-43
2021/09/10 09:11:01;;;;;;;7.47;6.13;;;24.00;67.60;;;;;;4949855;28;21046;-43
2021/09/10 09:13:41;;;;;;;6.70;6.10;;;24.10;67.50;;;;;;4947958;28;20474;-43
2021/09/10 09:16:26;;;;;;;6.17;5.67;;;24.10;67.10;;;;;;4944742;29;20466;-43
2021/09/10 09:18:58;;;;;;;7.40;6.60;;;24.20;66.90;;;;;;4943002;28;20543;-43
2021/09/10 09:21:28;;;;;;;6.53;5.90;;;24.20;67.00;;;;;;4944112;28;20836;-43
2021/09/10 09:24:17;;;;;;;7.13;6.23;;;24.20;66.70;;;;;;4940890;28;20466;-43
2021/09/10 09:26:48;;;;;;;6.77;5.67;;;24.20;65.80;;;;;;4943614;28;20482;-43
2021/09/10 09:29:20;;;;;;;6.33;5.50;;;24.20;65.60;;;;;;4947446;28;20451;-43
2021/09/10 09:32:13;;;;;;;5.93;5.43;;;24.10;65.90;;;;;;4945948;28;20969;-43
2021/09/10 09:34:46;;;;;;;5.83;5.10;;;24.20;66.00;;;;;;4945944;28;20462;-43
2021/09/10 09:37:16;;;;;;;6.77;6.17;;;24.20;66.10;;;;;;4946943;28;20576;-43
2021/09/10 09:39:56;;;;;;;5.33;4.83;;;24.20;65.90;;;;;;4945470;28;20776;-43
2021/09/10 09:42:25;;;;;;;6.20;5.60;;;24.10;66.10;;;;;;4949408;28;20458;-42
2021/09/10 09:45:36;;;;;;;7.67;6.70;;;24.20;66.00;;;;;;4945921;28;20474;-42
2021/09/10 09:48:08;;;;;;;6.03;5.50;;;24.20;66.00;;;;;;4870753;29;20538;-43
2021/09/10 09:50:36;;;;;;;6.57;5.90;;;24.10;66.40;;;;;;4871416;29;21022;-43
2021/09/10 09:53:04;;;;;;;5.07;4.57;;;24.10;66.30;;;;;;4914246;28;20461;-43
2021/09/10 09:55:33;;;;;;;6.87;6.17;;;24.00;66.50;;;;;;4945119;28;20462;-43
2021/09/10 09:58:05;;;;;;;7.00;6.30;;;24.00;66.70;;;;;;4947424;28;20458;-43
2021/09/10 10:00:45;;;;;;;8.80;5.40;;;24.00;66.90;;;;;;4944452;28;20467;-43
2021/09/10 10:03:13;;;;;;;5.23;4.83;;;24.00;67.10;;;;;;4947556;28;20458;-43
2021/09/10 10:05:51;;;;;;;8.00;5.10;;;23.90;67.30;;;;;;4946769;28;20558;-43
2021/09/10 10:08:26;;;;;;;5.73;5.23;;;23.90;67.20;;;;;;4945870;28;20486;-43
2021/09/10 10:11:05;;;;;;;5.77;5.27;;;23.90;67.20;;;;;;4946482;28;20462;-43
2021/09/10 10:13:32;;;;;;;6.80;5.17;;;23.80;67.60;;;;;;4947832;28;21037;-43
2021/09/10 10:15:59;;;;;;;6.93;5.40;;;23.70;68.10;;;;;;4947729;28;20977;-43
2021/09/10 10:18:46;;;;;;;4.87;4.47;;;23.70;68.10;;;;;;4947139;28;20454;-43
2021/09/10 10:21:14;;;;;;;4.90;4.50;;;23.70;68.00;;;;;;4943809;28;20465;-43
2021/09/10 10:23:44;;;;;;;7.00;5.37;;;23.80;68.00;;;;;;4949023;28;20473;-42
2021/09/10 10:26:16;;;;;;;5.67;4.40;;;23.80;68.20;;;;;;4950968;28;20481;-42
2021/09/10 10:28:51;;;;;;;5.10;4.13;;;23.70;68.40;;;;;;4952887;28;21074;-42
2021/09/10 10:31:57;;;;;;;6.20;5.23;;;23.70;68.70;;;;;;4950796;28;20461;-43
2021/09/10 10:34:24;;;;;;;4.87;4.40;;;23.80;67.90;;;;;;4951268;28;20967;-42
2021/09/10 10:36:52;;;;;;;5.83;5.30;;;23.70;68.00;;;;;;4947022;28;20949;-42
2021/09/10 10:39:30;;;;;;;5.00;4.50;;;23.70;68.10;;;;;;4949123;28;20462;-42
2021/09/10 10:42:02;;;;;;;5.03;4.63;;;23.70;68.00;;;;;;4950336;28;20465;-42
2021/09/10 10:44:35;;;;;;;6.00;5.40;;;23.70;68.30;;;;;;4948163;28;20458;-42
2021/09/10 10:47:03;;;;;;;6.53;6.03;;;23.70;68.20;;;;;;4951103;28;20577;-42
2021/09/10 10:49:35;;;;;;;5.37;4.83;;;23.70;68.00;;;;;;4950095;28;20955;-43
2021/09/10 10:52:28;;;;;;;7.83;4.97;;;23.70;68.00;;;;;;4952119;28;20466;-43
2021/09/10 10:55:14;;;;;;;6.00;5.40;;;23.70;68.10;;;;;;4950122;28;20454;-42
2021/09/10 10:57:40;;;;;;;5.77;5.30;;;23.60;68.40;;;;;;4949883;28;20505;-43
2021/09/10 11:00:26;;;;;;;6.90;5.90;;;23.50;68.50;;;;;;4951862;28;20872;-42
2021/09/10 11:03:13;;;;;;;6.83;5.93;;;23.60;68.40;;;;;;4949909;28;20678;-42
2021/09/10 11:05:45;;;;;;;6.13;5.60;;;23.50;68.70;;;;;;4953442;28;21214;-42
2021/09/10 11:08:16;;;;;;;6.00;5.40;;;23.50;68.70;;;;;;4944054;28;20497;-42
2021/09/10 11:10:43;;;;;;;9.67;5.97;;;23.50;68.40;;;;;;4950028;28;20470;-42
2021/09/10 11:13:10;;;;;;;14.90;10.20;;;23.40;68.60;;;;;;4948986;28;20485;-43
2021/09/10 11:15:40;;;;;;;11.43;8.63;;;23.40;68.70;;;;;;4932983;28;20494;-42
2021/09/10 11:18:11;;;;;;;10.60;6.70;;;23.40;68.90;;;;;;4951874;28;20470;-42
2021/09/10 11:20:43;;;;;;;6.80;6.10;;;23.40;68.80;;;;;;4944060;28;20562;-43
2021/09/10 11:23:18;;;;;;;7.80;6.13;;;23.40;68.90;;;;;;4949164;28;20838;-43
2021/09/10 11:25:51;;;;;;;8.10;6.53;;;23.30;69.00;;;;;;4949325;28;20469;-42
2021/09/10 11:28:19;;;;;;;7.37;6.67;;;23.30;69.50;;;;;;4946368;28;20490;-43
2021/09/10 11:30:48;;;;;;;6.87;6.30;;;23.30;70.10;;;;;;4949902;28;20454;-43
2021/09/10 11:33:17;;;;;;;9.93;7.40;;;23.20;71.30;;;;;;4951834;28;20836;-42
2021/09/10 11:35:46;;;;;;;8.23;6.70;;;23.10;72.30;;;;;;4952081;28;20462;-43
2021/09/10 11:38:25;;;;;;;7.90;7.10;;;23.10;73.60;;;;;;4950027;28;20455;-42
2021/09/10 11:40:57;;;;;;;15.30;7.87;;;23.10;74.00;;;;;;4951390;28;20469;-42
2021/09/10 11:43:29;;;;;;;9.20;7.80;;;23.10;74.80;;;;;;4951590;28;20983;-43
2021/09/10 11:45:57;;;;;;;9.33;7.60;;;23.10;75.40;;;;;;4950764;29;20457;-43
2021/09/10 11:48:46;;;;;;;7.83;6.70;;;23.10;75.50;;;;;;4951627;29;20549;-43
2021/09/10 11:51:14;;;;;;;9.43;7.43;;;23.20;75.90;;;;;;4931272;29;20802;-43
2021/09/10 11:53:48;;;;;;;7.30;5.87;;;23.40;75.70;;;;;;4949081;28;20454;-43
2021/09/10 11:56:18;;;;;;;8.37;7.33;;;23.50;75.30;;;;;;4953781;28;20459;-42
2021/09/10 11:58:50;;;;;;;7.50;6.57;;;23.60;74.90;;;;;;4952067;28;20837;-43
2021/09/10 12:01:28;;;;;;;6.43;5.83;;;23.60;74.70;;;;;;4951998;28;20889;-43
2021/09/10 12:04:22;;;;;;;7.67;6.90;;;23.80;73.50;;;;;;4950310;28;20462;-42
2021/09/10 12:06:50;;;;;;;7.23;6.53;;;23.80;73.30;;;;;;4947633;28;20458;-43
2021/09/10 12:09:22;;;;;;;7.90;7.00;;;23.80;73.40;;;;;;4944298;29;20493;-43
2021/09/10 12:12:08;;;;;;;6.97;6.17;;;23.90;72.90;;;;;;4949971;28;20462;-43
2021/09/10 12:14:54;;;;;;;8.10;6.30;;;23.90;72.70;;;;;;4947847;28;20487;-43
2021/09/10 12:17:33;;;;;;;7.70;6.90;;;23.90;72.50;;;;;;4949163;28;20453;-43
2021/09/10 12:20:02;;;;;;;7.43;6.50;;;24.00;72.60;;;;;;4946671;28;20462;-43
2021/09/10 12:22:31;;;;;;;8.17;6.33;;;24.00;72.50;;;;;;4947447;28;20490;-42
2021/09/10 12:25:23;;;;;;;8.63;7.37;;;24.20;71.70;;;;;;4948757;28;20602;-42
2021/09/10 12:28:13;;;;;;;7.17;6.50;;;24.20;71.90;;;;;;4948354;28;20498;-42
2021/09/10 12:30:41;;;;;;;7.77;6.97;;;24.30;71.70;;;;;;4946123;28;20801;-42
2021/09/10 12:33:10;;;;;;;8.10;6.80;;;24.40;71.10;;;;;;4945751;28;21027;-42
2021/09/10 12:35:38;;;;;;;6.90;5.97;;;24.40;70.90;;;;;;4950785;28;20490;-42
2021/09/10 12:38:08;;;;;;;7.30;6.60;;;24.50;69.80;;;;;;4949202;28;20459;-42
2021/09/10 12:40:44;;;;;;;8.43;7.07;;;24.40;70.40;;;;;;4952011;28;20554;-43
2021/09/10 12:43:13;;;;;;;7.77;7.07;;;24.40;70.70;;;;;;4947103;28;20478;-43
2021/09/10 12:45:41;;;;;;;8.53;7.57;;;24.40;70.60;;;;;;4947190;28;20458;-43
2021/09/10 12:48:08;;;;;;;7.87;7.10;;;24.30;70.70;;;;;;4947888;28;20491;-43
2021/09/10 12:50:36;;;;;;;7.10;6.50;;;24.40;70.90;;;;;;4951085;28;20458;-43
2021/09/10 12:53:04;;;;;;;7.60;6.90;;;24.40;71.00;;;;;;4949839;28;20991;-43